sensor_id;sensor_type;location;lat;lon;timestamp;pressure;altitude;pressure_sealevel;temperature;humidity
74329;BME280;62749;51.982;5.916;2023-09-18T00:02:25;100460.22;;;19.49;100.00
74329;BME280;62749;51.982;5.916;2023-09-18T00:04:58;100464.00;;;19.46;100.00
74329;BME280;62749;51.982;5.916;2023-09-18T00:07:27;100453.69;;;19.41;100.00
74329;BME280;62749;51.982;5.916;2023-09-18T00:09:57;100442.13;;;19.41;100.00
74329;BME280;62749;51.982;5.916;2023-09-18T00:12:26;100435.06;;;19.40;100.00
74329;BME280;62749;51.982;5.916;2023-09-18T00:14:56;100442.25;;;19.39;100.00
74329;BME280;62749;51.982;5.916;2023-09-18T00:17:28;100431.41;;;19.41;100.00
74329;BME280;62749;51.982;5.916;2023-09-18T00:19:57;100428.59;;;19.42;100.00
74329;BME280;62749;51.982;5.916;2023-09-18T00:22:27;100411.22;;;19.37;100.00
74329;BME280;62749;51.982;5.916;2023-09-18T00:24:56;100409.53;;;19.36;100.00
74329;BME280;62749;51.982;5.916;2023-09-18T00:27:25;100397.38;;;19.31;100.00
74329;BME280;62749;51.982;5.916;2023-09-18T00:29:55;100391.19;;;19.31;100.00
74329;BME280;62749;51.982;5.916;2023-09-18T00:32:24;100388.50;;;19.31;100.00
74329;BME280;62749;51.982;5.916;2023-09-18T00:35:03;100386.81;;;19.30;100.00
74329;BME280;62749;51.982;5.916;2023-09-18T00:37:33;100381.31;;;19.31;100.00
74329;BME280;62749;51.982;5.916;2023-09-18T00:40:03;100385.09;;;19.29;100.00
74329;BME280;62749;51.982;5.916;2023-09-18T00:42:33;100394.44;;;19.35;100.00
74329;BME280;62749;51.982;5.916;2023-09-18T00:45:03;100388.25;;;19.34;100.00
74329;BME280;62749;51.982;5.916;2023-09-18T00:47:34;100376.66;;;19.34;100.00
74329;BME280;62749;51.982;5.916;2023-09-18T00:50:11;100364.66;;;19.28;100.00
74329;BME280;62749;51.982;5.916;2023-09-18T00:52:43;100358.56;;;19.26;100.00
74329;BME280;62749;51.982;5.916;2023-09-18T00:55:12;100362.56;;;19.31;100.00
74329;BME280;62749;51.982;5.916;2023-09-18T00:57:42;100345.81;;;19.29;100.00
74329;BME280;62749;51.982;5.916;2023-09-18T01:00:14;100342.50;;;19.26;100.00
74329;BME280;62749;51.982;5.916;2023-09-18T01:02:44;100344.22;;;19.27;100.00
74329;BME280;62749;51.982;5.916;2023-09-18T01:05:17;100333.19;;;19.20;100.00
74329;BME280;62749;51.982;5.916;2023-09-18T01:07:46;100319.22;;;19.16;100.00
74329;BME280;62749;51.982;5.916;2023-09-18T01:10:16;100327.00;;;19.20;100.00
74329;BME280;62749;51.982;5.916;2023-09-18T01:12:51;100317.13;;;19.20;100.00
74329;BME280;62749;51.982;5.916;2023-09-18T01:15:27;100320.91;;;19.17;100.00
74329;BME280;62749;51.982;5.916;2023-09-18T01:17:59;100319.06;;;19.18;100.00
74329;BME280;62749;51.982;5.916;2023-09-18T01:20:32;100312.63;;;19.21;100.00
74329;BME280;62749;51.982;5.916;2023-09-18T01:23:04;100306.41;;;19.20;100.00
74329;BME280;62749;51.982;5.916;2023-09-18T01:25:33;100300.47;;;19.16;100.00
74329;BME280;62749;51.982;5.916;2023-09-18T01:28:03;100297.53;;;19.20;100.00
74329;BME280;62749;51.982;5.916;2023-09-18T01:30:33;100289.63;;;19.18;100.00
74329;BME280;62749;51.982;5.916;2023-09-18T01:33:04;100272.16;;;19.14;100.00
74329;BME280;62749;51.982;5.916;2023-09-18T01:35:36;100263.53;;;19.10;100.00
74329;BME280;62749;51.982;5.916;2023-09-18T01:38:12;100269.59;;;19.12;100.00
74329;BME280;62749;51.982;5.916;2023-09-18T01:40:42;100257.91;;;19.13;100.00
74329;BME280;62749;51.982;5.916;2023-09-18T01:43:12;100260.88;;;19.10;100.00
74329;BME280;62749;51.982;5.916;2023-09-18T01:45:42;100249.28;;;19.10;100.00
74329;BME280;62749;51.982;5.916;2023-09-18T01:48:12;100247.59;;;19.09;100.00
74329;BME280;62749;51.982;5.916;2023-09-18T01:50:41;100247.75;;;19.17;100.00
74329;BME280;62749;51.982;5.916;2023-09-18T01:53:13;100248.06;;;19.14;100.00
74329;BME280;62749;51.982;5.916;2023-09-18T01:55:43;100241.00;;;19.13;100.00
74329;BME280;62749;51.982;5.916;2023-09-18T01:58:13;100229.31;;;19.14;100.00
74329;BME280;62749;51.982;5.916;2023-09-18T02:00:43;100237.06;;;19.17;100.00
74329;BME280;62749;51.982;5.916;2023-09-18T02:03:12;100232.00;;;19.14;100.00
74329;BME280;62749;51.982;5.916;2023-09-18T02:05:44;100257.13;;;19.23;100.00
74329;BME280;62749;51.982;5.916;2023-09-18T02:08:16;100254.56;;;19.21;100.00
74329;BME280;62749;51.982;5.916;2023-09-18T02:10:46;100242.16;;;19.20;100.00
74329;BME280;62749;51.982;5.916;2023-09-18T02:13:16;100244.16;;;19.28;100.00
74329;BME280;62749;51.982;5.916;2023-09-18T02:15:45;100243.75;;;19.32;100.00
74329;BME280;62749;51.982;5.916;2023-09-18T02:18:15;100244.22;;;19.38;100.00
74329;BME280;62749;51.982;5.916;2023-09-18T02:20:45;100237.72;;;19.40;100.00
74329;BME280;62749;51.982;5.916;2023-09-18T02:23:18;100236.59;;;19.43;100.00
74329;BME280;62749;51.982;5.916;2023-09-18T02:25:55;100234.34;;;19.38;100.00
74329;BME280;62749;51.982;5.916;2023-09-18T02:28:25;100231.25;;;19.43;100.00
74329;BME280;62749;51.982;5.916;2023-09-18T02:30:55;100238.03;;;19.47;100.00
74329;BME280;62749;51.982;5.916;2023-09-18T02:33:26;100231.84;;;19.46;100.00
74329;BME280;62749;51.982;5.916;2023-09-18T02:35:55;100230.16;;;19.45;100.00
74329;BME280;62749;51.982;5.916;2023-09-18T02:38:28;100219.44;;;19.45;100.00
74329;BME280;62749;51.982;5.916;2023-09-18T02:40:57;100204.75;;;19.40;100.00
74329;BME280;62749;51.982;5.916;2023-09-18T02:43:27;100191.06;;;19.43;100.00
74329;BME280;62749;51.982;5.916;2023-09-18T02:45:56;100195.91;;;19.49;100.00
74329;BME280;62749;51.982;5.916;2023-09-18T02:48:26;100175.72;;;19.45;100.00
74329;BME280;62749;51.982;5.916;2023-09-18T02:50:55;100171.22;;;19.45;100.00
74329;BME280;62749;51.982;5.916;2023-09-18T02:53:28;100166.59;;;19.47;100.00
74329;BME280;62749;51.982;5.916;2023-09-18T02:55:59;100163.31;;;19.44;100.00
74329;BME280;62749;51.982;5.916;2023-09-18T02:58:29;100155.28;;;19.44;100.00
74329;BME280;62749;51.982;5.916;2023-09-18T03:01:01;100151.19;;;19.40;100.00
74329;BME280;62749;51.982;5.916;2023-09-18T03:03:33;100150.63;;;19.46;100.00
74329;BME280;62749;51.982;5.916;2023-09-18T03:06:04;100130.19;;;19.45;100.00
74329;BME280;62749;51.982;5.916;2023-09-18T03:08:38;100124.00;;;19.44;100.00
74329;BME280;62749;51.982;5.916;2023-09-18T03:11:13;100098.34;;;19.42;100.00
74329;BME280;62749;51.982;5.916;2023-09-18T03:13:44;100093.66;;;19.44;100.00
74329;BME280;62749;51.982;5.916;2023-09-18T03:16:14;100088.31;;;19.44;100.00
74329;BME280;62749;51.982;5.916;2023-09-18T03:18:44;100082.28;;;19.42;100.00
74329;BME280;62749;51.982;5.916;2023-09-18T03:21:13;100086.06;;;19.39;100.00
74329;BME280;62749;51.982;5.916;2023-09-18T03:23:45;100090.16;;;19.43;100.00
74329;BME280;62749;51.982;5.916;2023-09-18T03:26:14;100084.38;;;19.48;100.00
74329;BME280;62749;51.982;5.916;2023-09-18T03:28:44;100068.47;;;19.46;100.00
74329;BME280;62749;51.982;5.916;2023-09-18T03:31:16;100062.97;;;19.48;100.00
74329;BME280;62749;51.982;5.916;2023-09-18T03:33:46;100073.13;;;19.54;100.00
74329;BME280;62749;51.982;5.916;2023-09-18T03:36:19;100067.19;;;19.60;100.00
74329;BME280;62749;51.982;5.916;2023-09-18T03:38:52;100063.25;;;19.65;100.00
74329;BME280;62749;51.982;5.916;2023-09-18T03:41:21;100070.88;;;19.69;100.00
74329;BME280;62749;51.982;5.916;2023-09-18T03:43:51;100068.19;;;19.69;100.00
74329;BME280;62749;51.982;5.916;2023-09-18T03:46:20;100055.94;;;19.67;100.00
74329;BME280;62749;51.982;5.916;2023-09-18T03:48:50;100062.56;;;19.72;100.00
74329;BME280;62749;51.982;5.916;2023-09-18T03:51:19;100064.91;;;19.75;100.00
74329;BME280;62749;51.982;5.916;2023-09-18T03:53:48;100074.53;;;19.78;100.00
74329;BME280;62749;51.982;5.916;2023-09-18T03:56:21;100087.50;;;19.83;100.00
74329;BME280;62749;51.982;5.916;2023-09-18T03:58:51;100083.59;;;19.87;100.00
74329;BME280;62749;51.982;5.916;2023-09-18T04:01:20;100103.72;;;19.81;100.00
74329;BME280;62749;51.982;5.916;2023-09-18T04:03:49;100098.81;;;19.86;100.00
74329;BME280;62749;51.982;5.916;2023-09-18T04:06:20;100101.88;;;19.82;100.00
74329;BME280;62749;51.982;5.916;2023-09-18T04:08:51;100094.56;;;19.84;100.00
74329;BME280;62749;51.982;5.916;2023-09-18T04:11:23;100075.09;;;19.82;100.00
74329;BME280;62749;51.982;5.916;2023-09-18T04:13:52;100064.91;;;19.75;100.00
74329;BME280;62749;51.982;5.916;2023-09-18T04:16:22;100071.16;;;19.76;100.00
74329;BME280;62749;51.982;5.916;2023-09-18T04:18:51;100068.47;;;19.76;100.00
74329;BME280;62749;51.982;5.916;2023-09-18T04:21:20;100072.41;;;19.72;100.00
74329;BME280;62749;51.982;5.916;2023-09-18T04:23:51;100084.25;;;19.69;100.00
74329;BME280;62749;51.982;5.916;2023-09-18T04:26:27;100066.06;;;19.63;100.00
74329;BME280;62749;51.982;5.916;2023-09-18T04:28:57;100072.56;;;19.70;100.00
74329;BME280;62749;51.982;5.916;2023-09-18T04:31:27;100061.84;;;19.70;100.00
74329;BME280;62749;51.982;5.916;2023-09-18T04:33:56;100051.94;;;19.71;100.00
74329;BME280;62749;51.982;5.916;2023-09-18T04:36:25;100035.88;;;19.71;100.00
74329;BME280;62749;51.982;5.916;2023-09-18T04:38:55;100017.28;;;19.69;100.00
74329;BME280;62749;51.982;5.916;2023-09-18T04:41:27;100010.38;;;19.67;100.00
74329;BME280;62749;51.982;5.916;2023-09-18T04:43:56;100021.94;;;19.67;100.00
74329;BME280;62749;51.982;5.916;2023-09-18T04:46:26;100013.34;;;19.63;100.00
74329;BME280;62749;51.982;5.916;2023-09-18T04:48:56;100020.09;;;19.58;100.00
74329;BME280;62749;51.982;5.916;2023-09-18T04:51:25;100039.56;;;19.60;100.00
74329;BME280;62749;51.982;5.916;2023-09-18T04:53:54;100035.88;;;19.71;100.00
74329;BME280;62749;51.982;5.916;2023-09-18T04:56:26;100039.81;;;19.76;100.00
74329;BME280;62749;51.982;5.916;2023-09-18T04:58:56;100040.09;;;19.83;100.00
74329;BME280;62749;51.982;5.916;2023-09-18T05:01:25;100030.25;;;19.93;100.00
74329;BME280;62749;51.982;5.916;2023-09-18T05:03:56;100031.78;;;20.06;100.00
74329;BME280;62749;51.982;5.916;2023-09-18T05:06:26;100032.47;;;20.08;100.00
74329;BME280;62749;51.982;5.916;2023-09-18T05:08:55;100041.34;;;20.18;100.00
74329;BME280;62749;51.982;5.916;2023-09-18T05:11:27;100028.34;;;20.23;100.00
74329;BME280;62749;51.982;5.916;2023-09-18T05:13:57;100037.69;;;20.19;100.00
74329;BME280;62749;51.982;5.916;2023-09-18T05:16:27;100049.34;;;20.28;100.00
74329;BME280;62749;51.982;5.916;2023-09-18T05:18:57;100032.88;;;20.23;100.00
74329;BME280;62749;51.982;5.916;2023-09-18T05:21:26;100046.25;;;20.33;100.00
74329;BME280;62749;51.982;5.916;2023-09-18T05:23:56;100048.63;;;20.36;100.00
74329;BME280;62749;51.982;5.916;2023-09-18T05:26:28;100031.81;;;20.34;100.00
74329;BME280;62749;51.982;5.916;2023-09-18T05:28:58;100033.50;;;20.35;100.00
74329;BME280;62749;51.982;5.916;2023-09-18T05:31:27;100029.84;;;20.36;100.00
74329;BME280;62749;51.982;5.916;2023-09-18T05:33:56;100018.13;;;20.37;100.00
74329;BME280;62749;51.982;5.916;2023-09-18T05:36:26;100011.38;;;20.33;100.00
74329;BME280;62749;51.982;5.916;2023-09-18T05:38:55;100008.84;;;20.31;100.00
74329;BME280;62749;51.982;5.916;2023-09-18T05:41:25;100021.78;;;20.36;100.00
74329;BME280;62749;51.982;5.916;2023-09-18T05:44:00;100013.22;;;20.22;100.00
74329;BME280;62749;51.982;5.916;2023-09-18T05:46:31;100027.78;;;20.20;100.00
74329;BME280;62749;51.982;5.916;2023-09-18T05:49:00;100019.31;;;20.15;100.00
74329;BME280;62749;51.982;5.916;2023-09-18T05:51:30;100024.56;;;20.16;100.00
74329;BME280;62749;51.982;5.916;2023-09-18T05:54:01;100029.75;;;20.18;100.00
74329;BME280;62749;51.982;5.916;2023-09-18T05:56:31;100029.91;;;20.16;100.00
74329;BME280;62749;51.982;5.916;2023-09-18T05:59:03;100003.72;;;20.00;100.00
74329;BME280;62749;51.982;5.916;2023-09-18T06:01:32;100030.91;;;20.15;100.00
74329;BME280;62749;51.982;5.916;2023-09-18T06:04:01;100041.91;;;20.12;100.00
74329;BME280;62749;51.982;5.916;2023-09-18T06:06:31;100070.84;;;20.08;100.00
74329;BME280;62749;51.982;5.916;2023-09-18T06:09:00;100051.53;;;20.05;100.00
74329;BME280;62749;51.982;5.916;2023-09-18T06:11:30;100044.47;;;19.84;100.00
74329;BME280;62749;51.982;5.916;2023-09-18T06:13:59;100095.97;;;19.98;100.00
74329;BME280;62749;51.982;5.916;2023-09-18T06:16:31;100096.13;;;20.06;100.00
74329;BME280;62749;51.982;5.916;2023-09-18T06:19:01;100091.16;;;20.01;100.00
74329;BME280;62749;51.982;5.916;2023-09-18T06:21:30;100091.44;;;20.08;100.00
74329;BME280;62749;51.982;5.916;2023-09-18T06:23:59;100086.94;;;20.18;100.00
74329;BME280;62749;51.982;5.916;2023-09-18T06:26:29;100087.91;;;20.17;100.00
74329;BME280;62749;51.982;5.916;2023-09-18T06:28:58;100079.00;;;20.17;100.00
74329;BME280;62749;51.982;5.916;2023-09-18T06:31:31;100095.66;;;20.20;100.00
74329;BME280;62749;51.982;5.916;2023-09-18T06:34:00;100102.44;;;20.24;100.00
74329;BME280;62749;51.982;5.916;2023-09-18T06:36:29;100104.41;;;20.22;100.00
74329;BME280;62749;51.982;5.916;2023-09-18T06:38:59;100107.78;;;20.24;100.00
74329;BME280;62749;51.982;5.916;2023-09-18T06:41:28;100101.28;;;20.27;100.00
74329;BME280;62749;51.982;5.916;2023-09-18T06:43:58;100095.53;;;20.22;100.00
74329;BME280;62749;51.982;5.916;2023-09-18T06:46:31;100101.72;;;20.22;100.00
74329;BME280;62749;51.982;5.916;2023-09-18T06:49:08;100111.19;;;20.27;100.00
74329;BME280;62749;51.982;5.916;2023-09-18T06:51:37;100110.06;;;20.19;100.00
74329;BME280;62749;51.982;5.916;2023-09-18T06:54:06;100111.19;;;20.27;100.00
74329;BME280;62749;51.982;5.916;2023-09-18T06:56:36;100071.84;;;20.17;100.00
74329;BME280;62749;51.982;5.916;2023-09-18T06:59:05;100106.25;;;20.32;100.00
74329;BME280;62749;51.982;5.916;2023-09-18T07:01:37;100097.88;;;20.35;100.00
74329;BME280;62749;51.982;5.916;2023-09-18T07:04:07;100111.16;;;20.36;100.00
74329;BME280;62749;51.982;5.916;2023-09-18T07:06:37;100103.13;;;20.36;100.00
74329;BME280;62749;51.982;5.916;2023-09-18T07:09:06;100098.03;;;20.43;99.98
74329;BME280;62749;51.982;5.916;2023-09-18T07:11:38;100110.84;;;20.49;97.87
74329;BME280;62749;51.982;5.916;2023-09-18T07:14:07;100114.50;;;20.48;98.08
74329;BME280;62749;51.982;5.916;2023-09-18T07:16:39;100095.88;;;20.47;99.22
74329;BME280;62749;51.982;5.916;2023-09-18T07:19:09;100103.22;;;20.54;96.58
74329;BME280;62749;51.982;5.916;2023-09-18T07:21:43;100108.97;;;20.60;96.35
74329;BME280;62749;51.982;5.916;2023-09-18T07:24:13;100109.97;;;20.59;95.45
74329;BME280;62749;51.982;5.916;2023-09-18T07:26:44;100094.81;;;20.67;95.79
74329;BME280;62749;51.982;5.916;2023-09-18T07:29:14;100057.88;;;20.51;93.82
74329;BME280;62749;51.982;5.916;2023-09-18T07:31:46;100079.88;;;20.65;94.66
74329;BME280;62749;51.982;5.916;2023-09-18T07:34:16;100109.91;;;20.68;94.14
74329;BME280;62749;51.982;5.916;2023-09-18T07:36:46;100114.47;;;20.68;93.04
74329;BME280;62749;51.982;5.916;2023-09-18T07:39:20;100100.06;;;20.69;92.37
74329;BME280;62749;51.982;5.916;2023-09-18T07:41:52;100098.19;;;20.69;92.08
74329;BME280;62749;51.982;5.916;2023-09-18T07:44:22;100105.25;;;20.70;92.46
74329;BME280;62749;51.982;5.916;2023-09-18T07:46:54;100122.91;;;20.73;92.45
74329;BME280;62749;51.982;5.916;2023-09-18T07:49:23;100124.66;;;20.64;92.36
74329;BME280;62749;51.982;5.916;2023-09-18T07:51:52;100125.94;;;20.50;94.18
74329;BME280;62749;51.982;5.916;2023-09-18T07:54:22;100113.50;;;20.49;92.72
74329;BME280;62749;51.982;5.916;2023-09-18T07:56:51;100130.03;;;20.54;93.33
74329;BME280;62749;51.982;5.916;2023-09-18T07:59:21;100116.03;;;20.61;91.76
74329;BME280;62749;51.982;5.916;2023-09-18T08:01:54;100096.16;;;20.53;91.61
74329;BME280;62749;51.982;5.916;2023-09-18T08:04:24;100135.94;;;20.68;91.93
74329;BME280;62749;51.982;5.916;2023-09-18T08:06:53;100132.69;;;20.64;91.24
74329;BME280;62749;51.982;5.916;2023-09-18T08:09:23;100136.91;;;20.67;91.60
74329;BME280;62749;51.982;5.916;2023-09-18T08:11:52;100145.66;;;20.69;91.17
74329;BME280;62749;51.982;5.916;2023-09-18T08:14:22;100134.38;;;20.65;92.73
74329;BME280;62749;51.982;5.916;2023-09-18T08:16:59;100125.19;;;20.68;90.64
74329;BME280;62749;51.982;5.916;2023-09-18T08:19:29;100131.09;;;20.72;91.63
74329;BME280;62749;51.982;5.916;2023-09-18T08:21:59;100132.53;;;20.66;91.75
74329;BME280;62749;51.982;5.916;2023-09-18T08:24:30;100146.06;;;20.74;90.62
74329;BME280;62749;51.982;5.916;2023-09-18T08:26:59;100129.00;;;20.75;90.39
74329;BME280;62749;51.982;5.916;2023-09-18T08:29:29;100113.75;;;20.66;89.78
74329;BME280;62749;51.982;5.916;2023-09-18T08:32:01;100138.00;;;20.74;90.46
74329;BME280;62749;51.982;5.916;2023-09-18T08:34:31;100130.56;;;20.78;89.57
74329;BME280;62749;51.982;5.916;2023-09-18T08:37:00;100134.63;;;20.82;89.13
74329;BME280;62749;51.982;5.916;2023-09-18T08:39:31;100129.88;;;20.76;89.72
74329;BME280;62749;51.982;5.916;2023-09-18T08:42:04;100133.09;;;20.79;89.34
74329;BME280;62749;51.982;5.916;2023-09-18T08:44:39;100147.06;;;20.83;88.08
74329;BME280;62749;51.982;5.916;2023-09-18T08:47:14;100151.53;;;20.92;88.30
74329;BME280;62749;51.982;5.916;2023-09-18T08:49:46;100155.66;;;20.87;87.72
74329;BME280;62749;51.982;5.916;2023-09-18T08:52:20;100163.31;;;20.81;88.43
74329;BME280;62749;51.982;5.916;2023-09-18T08:54:51;100169.53;;;20.82;87.73
74329;BME280;62749;51.982;5.916;2023-09-18T08:57:23;100157.41;;;20.78;88.53
74329;BME280;62749;51.982;5.916;2023-09-18T08:59:54;100153.13;;;20.85;89.58
74329;BME280;62749;51.982;5.916;2023-09-18T09:02:27;100149.28;;;20.88;88.45
74329;BME280;62749;51.982;5.916;2023-09-18T09:04:56;100154.38;;;20.91;88.80
74329;BME280;62749;51.982;5.916;2023-09-18T09:07:26;100155.78;;;20.95;86.66
74329;BME280;62749;51.982;5.916;2023-09-18T09:09:57;100175.56;;;20.94;86.60
74329;BME280;62749;51.982;5.916;2023-09-18T09:12:46;100169.50;;;20.92;87.05
74329;BME280;62749;51.982;5.916;2023-09-18T09:15:16;100170.03;;;20.95;87.42
74329;BME280;62749;51.982;5.916;2023-09-18T09:17:49;100181.03;;;21.02;86.63
74329;BME280;62749;51.982;5.916;2023-09-18T09:20:19;100175.09;;;21.08;87.50
74329;BME280;62749;51.982;5.916;2023-09-18T09:22:48;100163.91;;;21.13;86.17
74329;BME280;62749;51.982;5.916;2023-09-18T09:25:25;100170.41;;;21.10;86.52
74329;BME280;62749;51.982;5.916;2023-09-18T09:27:58;100178.47;;;21.10;85.41
74329;BME280;62749;51.982;5.916;2023-09-18T09:30:30;100174.84;;;21.02;86.18
74329;BME280;62749;51.982;5.916;2023-09-18T09:33:04;100175.09;;;21.08;86.02
74329;BME280;62749;51.982;5.916;2023-09-18T09:35:36;100164.00;;;21.21;85.29
74329;BME280;62749;51.982;5.916;2023-09-18T09:38:10;100171.13;;;21.30;84.11
74329;BME280;62749;51.982;5.916;2023-09-18T09:40:43;100166.25;;;21.44;86.88
74329;BME280;62749;51.982;5.916;2023-09-18T09:43:13;100168.75;;;21.55;85.27
74329;BME280;62749;51.982;5.916;2023-09-18T09:45:46;100163.22;;;21.57;82.04
74329;BME280;62749;51.982;5.916;2023-09-18T09:48:18;100172.28;;;21.56;81.90
74329;BME280;62749;51.982;5.916;2023-09-18T09:50:48;100180.84;;;21.69;82.63
74329;BME280;62749;51.982;5.916;2023-09-18T09:53:18;100183.72;;;21.86;81.27
74329;BME280;62749;51.982;5.916;2023-09-18T09:58:27;100186.25;;;22.05;79.79
74329;BME280;62749;51.982;5.916;2023-09-18T10:01:03;100182.63;;;22.15;79.45
74329;BME280;62749;51.982;5.916;2023-09-18T10:03:40;100171.69;;;22.34;78.88
74329;BME280;62749;51.982;5.916;2023-09-18T10:06:10;100179.53;;;22.46;79.23
74329;BME280;62749;51.982;5.916;2023-09-18T10:08:41;100174.97;;;22.46;80.26
74329;BME280;62749;51.982;5.916;2023-09-18T10:11:14;100176.81;;;22.64;76.97
74329;BME280;62749;51.982;5.916;2023-09-18T10:13:47;100172.53;;;22.79;78.94
74329;BME280;62749;51.982;5.916;2023-09-18T10:16:19;100189.59;;;22.96;73.96
74329;BME280;62749;51.982;5.916;2023-09-18T10:19:02;100199.34;;;22.89;77.35
74329;BME280;62749;51.982;5.916;2023-09-18T10:21:41;100205.88;;;22.87;73.83
74329;BME280;62749;51.982;5.916;2023-09-18T10:24:20;100199.13;;;22.56;75.09
74329;BME280;62749;51.982;5.916;2023-09-18T10:26:56;100206.13;;;22.49;75.84
74329;BME280;62749;51.982;5.916;2023-09-18T10:29:26;100208.34;;;22.35;77.46
74329;BME280;62749;51.982;5.916;2023-09-18T10:31:56;100211.34;;;22.32;77.43
74329;BME280;62749;51.982;5.916;2023-09-18T10:34:29;100224.41;;;22.27;77.41
74329;BME280;62749;51.982;5.916;2023-09-18T10:37:02;100222.81;;;22.34;76.93
74329;BME280;62749;51.982;5.916;2023-09-18T10:39:35;100230.41;;;22.21;79.61
74329;BME280;62749;51.982;5.916;2023-09-18T10:42:07;100218.94;;;22.37;77.27
74329;BME280;62749;51.982;5.916;2023-09-18T10:44:37;100219.22;;;22.44;76.07
74329;BME280;62749;51.982;5.916;2023-09-18T10:47:10;100208.66;;;22.50;76.84
74329;BME280;62749;51.982;5.916;2023-09-18T10:49:43;100234.56;;;22.51;75.68
74329;BME280;62749;51.982;5.916;2023-09-18T10:52:13;100227.19;;;22.35;75.12
74329;BME280;62749;51.982;5.916;2023-09-18T10:54:44;100214.81;;;22.43;74.48
74329;BME280;62749;51.982;5.916;2023-09-18T10:57:14;100217.03;;;22.29;75.04
74329;BME280;62749;51.982;5.916;2023-09-18T10:59:54;100212.38;;;22.13;75.15
74329;BME280;62749;51.982;5.916;2023-09-18T11:02:23;100221.28;;;22.14;75.43
74329;BME280;62749;51.982;5.916;2023-09-18T11:04:56;100218.28;;;22.17;75.86
74329;BME280;62749;51.982;5.916;2023-09-18T11:07:25;100223.28;;;22.12;75.81
74329;BME280;62749;51.982;5.916;2023-09-18T11:09:54;100214.13;;;22.04;75.61
74329;BME280;62749;51.982;5.916;2023-09-18T11:12:43;100212.13;;;22.06;76.12
74329;BME280;62749;51.982;5.916;2023-09-18T11:15:26;100207.22;;;22.02;77.57
74329;BME280;62749;51.982;5.916;2023-09-18T11:18:01;100210.28;;;21.89;76.47
74329;BME280;62749;51.982;5.916;2023-09-18T11:20:34;100203.31;;;21.96;75.75
74329;BME280;62749;51.982;5.916;2023-09-18T11:23:16;100199.78;;;22.14;74.39
74329;BME280;62749;51.982;5.916;2023-09-18T11:25:46;100193.03;;;22.36;74.94
74329;BME280;62749;51.982;5.916;2023-09-18T11:28:24;100201.66;;;22.40;73.20
74329;BME280;62749;51.982;5.916;2023-09-18T11:30:55;100194.50;;;22.30;73.83
74329;BME280;62749;51.982;5.916;2023-09-18T11:33:35;100208.28;;;22.09;73.88
74329;BME280;62749;51.982;5.916;2023-09-18T11:36:12;100198.75;;;21.97;75.03
74329;BME280;62749;51.982;5.916;2023-09-18T11:38:53;100212.44;;;21.85;74.97
74329;BME280;62749;51.982;5.916;2023-09-18T11:41:24;100217.19;;;21.73;76.38
74329;BME280;62749;51.982;5.916;2023-09-18T11:44:31;100200.06;;;21.74;76.29
74329;BME280;62749;51.982;5.916;2023-09-18T11:47:01;100201.06;;;21.73;78.13
74329;BME280;62749;51.982;5.916;2023-09-18T11:49:32;100197.22;;;21.76;77.28
74329;BME280;62749;51.982;5.916;2023-09-18T11:52:05;100212.16;;;21.60;77.35
74329;BME280;62749;51.982;5.916;2023-09-18T11:54:34;100217.53;;;21.60;78.34
74329;BME280;62749;51.982;5.916;2023-09-18T11:57:04;100205.91;;;22.06;76.67
74329;BME280;62749;51.982;5.916;2023-09-18T11:59:36;100205.84;;;22.52;74.80
74329;BME280;62749;51.982;5.916;2023-09-18T12:02:06;100199.41;;;22.71;75.83
74329;BME280;62749;51.982;5.916;2023-09-18T12:04:36;100212.47;;;22.92;75.21
74329;BME280;62749;51.982;5.916;2023-09-18T12:07:09;100210.75;;;23.18;73.64
74329;BME280;62749;51.982;5.916;2023-09-18T12:09:39;100203.22;;;23.21;71.38
74329;BME280;62749;51.982;5.916;2023-09-18T12:12:09;100203.13;;;23.39;68.16
74329;BME280;62749;51.982;5.916;2023-09-18T12:14:41;100206.28;;;23.26;66.90
74329;BME280;62749;51.982;5.916;2023-09-18T12:17:14;100212.19;;;23.30;66.84
74329;BME280;62749;51.982;5.916;2023-09-18T12:19:52;100198.31;;;23.51;68.42
74329;BME280;62749;51.982;5.916;2023-09-18T12:22:29;100200.03;;;23.69;66.87
74329;BME280;62749;51.982;5.916;2023-09-18T12:25:08;100218.56;;;23.72;66.33
74329;BME280;62749;51.982;5.916;2023-09-18T12:27:51;100198.53;;;23.74;66.17
74329;BME280;62749;51.982;5.916;2023-09-18T12:30:34;100202.25;;;23.82;65.04
74329;BME280;62749;51.982;5.916;2023-09-18T12:33:16;100213.16;;;23.72;65.73
74329;BME280;62749;51.982;5.916;2023-09-18T12:35:58;100204.50;;;24.03;64.80
74329;BME280;62749;51.982;5.916;2023-09-18T12:51:31;100189.69;;;24.15;63.83
74329;BME280;62749;51.982;5.916;2023-09-18T12:54:13;100181.41;;;24.42;63.65
74329;BME280;62749;51.982;5.916;2023-09-18T12:56:54;100184.59;;;24.54;61.78
74329;BME280;62749;51.982;5.916;2023-09-18T12:59:37;100174.97;;;24.59;60.76
74329;BME280;62749;51.982;5.916;2023-09-18T13:02:19;100172.28;;;24.59;61.17
74329;BME280;62749;51.982;5.916;2023-09-18T13:05:00;100173.44;;;24.73;60.43
74329;BME280;62749;51.982;5.916;2023-09-18T13:39:34;100130.34;;;25.28;59.11
74329;BME280;62749;51.982;5.916;2023-09-18T13:42:04;100127.16;;;24.93;57.86
74329;BME280;62749;51.982;5.916;2023-09-18T13:44:33;100137.66;;;25.19;56.45
74329;BME280;62749;51.982;5.916;2023-09-18T13:47:15;100128.50;;;26.07;55.20
74329;BME280;62749;51.982;5.916;2023-09-18T13:49:44;100115.63;;;26.62;54.21
74329;BME280;62749;51.982;5.916;2023-09-18T13:52:14;100115.09;;;26.97;52.54
74329;BME280;62749;51.982;5.916;2023-09-18T14:33:04;100071.78;;;32.20;38.03
74329;BME280;62749;51.982;5.916;2023-09-18T14:35:45;100062.88;;;31.81;36.84